sensor_id;sensor_type;location;lat;lon;timestamp;temperature;humidity
1614;DHT22;800;48.824;9.346;2023-03-15T00:00:07;8.40;62.80
1614;DHT22;800;48.824;9.346;2023-03-15T00:02:37;8.50;62.80
1614;DHT22;800;48.824;9.346;2023-03-15T00:05:03;8.50;62.40
1614;DHT22;800;48.824;9.346;2023-03-15T00:07:29;8.50;62.30
1614;DHT22;800;48.824;9.346;2023-03-15T00:09:55;8.70;62.20
1614;DHT22;800;48.824;9.346;2023-03-15T00:12:21;8.70;62.20
1614;DHT22;800;48.824;9.346;2023-03-15T00:14:50;8.70;62.10
1614;DHT22;800;48.824;9.346;2023-03-15T00:17:16;8.80;62.00
1614;DHT22;800;48.824;9.346;2023-03-15T00:19:41;8.90;61.70
1614;DHT22;800;48.824;9.346;2023-03-15T00:22:07;8.90;61.30
1614;DHT22;800;48.824;9.346;2023-03-15T00:24:33;9.00;61.20
1614;DHT22;800;48.824;9.346;2023-03-15T00:26:58;9.00;60.60
1614;DHT22;800;48.824;9.346;2023-03-15T00:29:24;8.80;61.10
1614;DHT22;800;48.824;9.346;2023-03-15T00:31:50;8.70;61.70
1614;DHT22;800;48.824;9.346;2023-03-15T00:34:16;8.70;61.90
1614;DHT22;800;48.824;9.346;2023-03-15T00:36:43;8.60;62.30
1614;DHT22;800;48.824;9.346;2023-03-15T00:39:09;8.70;62.40
1614;DHT22;800;48.824;9.346;2023-03-15T00:41:35;8.90;62.10
1614;DHT22;800;48.824;9.346;2023-03-15T00:44:01;8.60;61.30
1614;DHT22;800;48.824;9.346;2023-03-15T00:46:28;8.70;61.80
1614;DHT22;800;48.824;9.346;2023-03-15T00:48:54;8.90;62.20
1614;DHT22;800;48.824;9.346;2023-03-15T00:51:21;9.00;61.80
1614;DHT22;800;48.824;9.346;2023-03-15T00:53:48;9.10;61.40
1614;DHT22;800;48.824;9.346;2023-03-15T00:56:17;9.10;61.20
1614;DHT22;800;48.824;9.346;2023-03-15T00:58:43;9.10;60.40
1614;DHT22;800;48.824;9.346;2023-03-15T01:01:15;9.30;60.80
1614;DHT22;800;48.824;9.346;2023-03-15T01:03:41;9.60;60.10
1614;DHT22;800;48.824;9.346;2023-03-15T01:06:09;9.80;60.70
1614;DHT22;800;48.824;9.346;2023-03-15T01:08:35;10.10;58.80
1614;DHT22;800;48.824;9.346;2023-03-15T01:11:03;10.20;57.80
1614;DHT22;800;48.824;9.346;2023-03-15T01:13:28;10.20;57.30
1614;DHT22;800;48.824;9.346;2023-03-15T01:15:54;10.30;57.10
1614;DHT22;800;48.824;9.346;2023-03-15T01:18:20;10.20;56.70
1614;DHT22;800;48.824;9.346;2023-03-15T01:20:45;10.10;57.00
1614;DHT22;800;48.824;9.346;2023-03-15T01:23:11;10.30;57.90
1614;DHT22;800;48.824;9.346;2023-03-15T01:25:37;10.50;57.60
1614;DHT22;800;48.824;9.346;2023-03-15T01:28:02;10.50;56.40
1614;DHT22;800;48.824;9.346;2023-03-15T01:30:28;10.70;56.50
1614;DHT22;800;48.824;9.346;2023-03-15T01:32:53;10.70;55.70
1614;DHT22;800;48.824;9.346;2023-03-15T01:35:19;10.70;55.90
1614;DHT22;800;48.824;9.346;2023-03-15T01:37:44;10.70;56.10
1614;DHT22;800;48.824;9.346;2023-03-15T01:40:13;10.90;56.40
1614;DHT22;800;48.824;9.346;2023-03-15T01:48:52;11.10;54.30
1614;DHT22;800;48.824;9.346;2023-03-15T01:51:23;11.20;54.20
1614;DHT22;800;48.824;9.346;2023-03-15T01:56:22;11.50;54.50
1614;DHT22;800;48.824;9.346;2023-03-15T01:58:50;11.60;53.90
1614;DHT22;800;48.824;9.346;2023-03-15T02:01:17;11.60;53.30
1614;DHT22;800;48.824;9.346;2023-03-15T02:03:47;11.60;53.20
1614;DHT22;800;48.824;9.346;2023-03-15T02:06:17;11.60;52.70
1614;DHT22;800;48.824;9.346;2023-03-15T02:08:54;11.70;52.90
1614;DHT22;800;48.824;9.346;2023-03-15T02:11:24;11.80;53.60
1614;DHT22;800;48.824;9.346;2023-03-15T02:13:50;12.00;53.20
1614;DHT22;800;48.824;9.346;2023-03-15T02:16:17;12.30;53.00
1614;DHT22;800;48.824;9.346;2023-03-15T02:18:43;12.50;53.00
1614;DHT22;800;48.824;9.346;2023-03-15T02:24:22;12.70;51.90
1614;DHT22;800;48.824;9.346;2023-03-15T02:26:53;12.80;51.70
1614;DHT22;800;48.824;9.346;2023-03-15T02:29:20;12.90;51.20
1614;DHT22;800;48.824;9.346;2023-03-15T02:31:46;12.90;50.30
1614;DHT22;800;48.824;9.346;2023-03-15T02:34:12;12.90;50.30
1614;DHT22;800;48.824;9.346;2023-03-15T02:36:38;13.00;50.30
1614;DHT22;800;48.824;9.346;2023-03-15T02:39:14;13.20;50.50
1614;DHT22;800;48.824;9.346;2023-03-15T02:41:43;13.40;50.00
1614;DHT22;800;48.824;9.346;2023-03-15T02:44:15;13.40;48.40
1614;DHT22;800;48.824;9.346;2023-03-15T02:46:45;13.50;48.30
1614;DHT22;800;48.824;9.346;2023-03-15T02:49:12;13.60;49.10
1614;DHT22;800;48.824;9.346;2023-03-15T02:51:41;13.70;47.90
1614;DHT22;800;48.824;9.346;2023-03-15T02:54:07;13.80;48.40
1614;DHT22;800;48.824;9.346;2023-03-15T02:56:33;13.80;48.00
1614;DHT22;800;48.824;9.346;2023-03-15T02:58:59;13.80;47.50
1614;DHT22;800;48.824;9.346;2023-03-15T03:01:25;13.80;47.50
1614;DHT22;800;48.824;9.346;2023-03-15T03:03:50;13.90;47.40
1614;DHT22;800;48.824;9.346;2023-03-15T03:06:16;13.90;47.70
1614;DHT22;800;48.824;9.346;2023-03-15T03:08:43;14.00;47.60
1614;DHT22;800;48.824;9.346;2023-03-15T03:11:14;14.00;47.10
1614;DHT22;800;48.824;9.346;2023-03-15T03:13:41;14.00;47.70
1614;DHT22;800;48.824;9.346;2023-03-15T03:16:07;14.00;46.90
1614;DHT22;800;48.824;9.346;2023-03-15T03:18:34;14.10;47.10
1614;DHT22;800;48.824;9.346;2023-03-15T03:21:02;14.10;47.20
1614;DHT22;800;48.824;9.346;2023-03-15T03:23:29;14.10;47.10
1614;DHT22;800;48.824;9.346;2023-03-15T03:25:56;14.20;46.60
1614;DHT22;800;48.824;9.346;2023-03-15T03:28:27;14.20;46.30
1614;DHT22;800;48.824;9.346;2023-03-15T03:30:54;14.20;46.20
1614;DHT22;800;48.824;9.346;2023-03-15T03:33:19;14.20;45.50
1614;DHT22;800;48.824;9.346;2023-03-15T03:35:45;14.20;45.50
1614;DHT22;800;48.824;9.346;2023-03-15T03:38:11;14.10;45.30
1614;DHT22;800;48.824;9.346;2023-03-15T03:40:38;14.00;45.10
1614;DHT22;800;48.824;9.346;2023-03-15T03:43:04;14.00;45.20
1614;DHT22;800;48.824;9.346;2023-03-15T03:45:29;14.00;45.10
1614;DHT22;800;48.824;9.346;2023-03-15T03:47:55;14.00;45.20
1614;DHT22;800;48.824;9.346;2023-03-15T03:50:21;14.00;45.00
1614;DHT22;800;48.824;9.346;2023-03-15T03:52:46;14.00;44.80
1614;DHT22;800;48.824;9.346;2023-03-15T03:55:12;14.00;44.70
1614;DHT22;800;48.824;9.346;2023-03-15T03:57:41;14.00;44.70
1614;DHT22;800;48.824;9.346;2023-03-15T04:00:11;14.00;44.60
1614;DHT22;800;48.824;9.346;2023-03-15T04:02:38;14.00;44.70
1614;DHT22;800;48.824;9.346;2023-03-15T04:05:07;13.90;44.10
1614;DHT22;800;48.824;9.346;2023-03-15T04:07:33;13.80;45.00
1614;DHT22;800;48.824;9.346;2023-03-15T04:09:59;13.90;45.80
1614;DHT22;800;48.824;9.346;2023-03-15T04:12:26;14.00;46.40
1614;DHT22;800;48.824;9.346;2023-03-15T04:14:52;14.00;45.80
1614;DHT22;800;48.824;9.346;2023-03-15T04:17:18;14.10;45.40
1614;DHT22;800;48.824;9.346;2023-03-15T04:19:43;14.10;44.90
1614;DHT22;800;48.824;9.346;2023-03-15T04:22:12;14.00;44.10
1614;DHT22;800;48.824;9.346;2023-03-15T04:24:40;14.00;43.80
1614;DHT22;800;48.824;9.346;2023-03-15T04:27:06;14.00;45.20
1614;DHT22;800;48.824;9.346;2023-03-15T04:29:32;14.00;45.00
1614;DHT22;800;48.824;9.346;2023-03-15T04:31:57;14.00;44.90
1614;DHT22;800;48.824;9.346;2023-03-15T04:34:30;14.00;44.30
1614;DHT22;800;48.824;9.346;2023-03-15T04:36:56;14.00;44.10
1614;DHT22;800;48.824;9.346;2023-03-15T04:39:22;14.00;43.90
1614;DHT22;800;48.824;9.346;2023-03-15T04:41:47;14.00;43.60
1614;DHT22;800;48.824;9.346;2023-03-15T04:44:13;14.00;43.30
1614;DHT22;800;48.824;9.346;2023-03-15T04:46:42;13.90;43.20
1614;DHT22;800;48.824;9.346;2023-03-15T04:49:08;13.70;42.80
1614;DHT22;800;48.824;9.346;2023-03-15T04:51:33;13.40;42.60
1614;DHT22;800;48.824;9.346;2023-03-15T04:53:59;13.00;43.00
1614;DHT22;800;48.824;9.346;2023-03-15T04:56:26;12.50;43.60
1614;DHT22;800;48.824;9.346;2023-03-15T04:58:52;12.10;44.40
1614;DHT22;800;48.824;9.346;2023-03-15T05:01:18;11.70;45.20
1614;DHT22;800;48.824;9.346;2023-03-15T05:03:43;11.40;45.90
1614;DHT22;800;48.824;9.346;2023-03-15T05:06:09;11.00;46.40
1614;DHT22;800;48.824;9.346;2023-03-15T05:08:35;10.70;47.10
1614;DHT22;800;48.824;9.346;2023-03-15T05:11:02;10.50;47.60
1614;DHT22;800;48.824;9.346;2023-03-15T05:13:28;10.30;47.80
1614;DHT22;800;48.824;9.346;2023-03-15T05:15:54;10.20;48.20
1614;DHT22;800;48.824;9.346;2023-03-15T05:18:20;10.10;48.60
1614;DHT22;800;48.824;9.346;2023-03-15T05:20:46;9.90;49.70
1614;DHT22;800;48.824;9.346;2023-03-15T05:23:12;9.70;50.00
1614;DHT22;800;48.824;9.346;2023-03-15T05:25:38;9.60;50.40
1614;DHT22;800;48.824;9.346;2023-03-15T05:28:04;9.50;51.10
1614;DHT22;800;48.824;9.346;2023-03-15T05:30:30;9.50;50.60
1614;DHT22;800;48.824;9.346;2023-03-15T05:32:56;9.40;50.70
1614;DHT22;800;48.824;9.346;2023-03-15T05:35:22;9.30;51.00
1614;DHT22;800;48.824;9.346;2023-03-15T05:37:51;9.20;51.10
1614;DHT22;800;48.824;9.346;2023-03-15T05:40:17;9.10;51.30
1614;DHT22;800;48.824;9.346;2023-03-15T05:42:43;9.00;51.50
1614;DHT22;800;48.824;9.346;2023-03-15T05:45:09;8.90;51.80
1614;DHT22;800;48.824;9.346;2023-03-15T05:47:34;8.80;51.90
1614;DHT22;800;48.824;9.346;2023-03-15T05:50:00;8.80;52.00
1614;DHT22;800;48.824;9.346;2023-03-15T05:52:25;8.80;52.00
1614;DHT22;800;48.824;9.346;2023-03-15T05:54:51;8.80;52.00
1614;DHT22;800;48.824;9.346;2023-03-15T05:57:17;8.80;52.30
1614;DHT22;800;48.824;9.346;2023-03-15T05:59:42;8.90;53.80
1614;DHT22;800;48.824;9.346;2023-03-15T06:02:08;9.20;55.30
1614;DHT22;800;48.824;9.346;2023-03-15T06:04:33;9.50;54.80
1614;DHT22;800;48.824;9.346;2023-03-15T06:07:00;9.70;54.00
1614;DHT22;800;48.824;9.346;2023-03-15T06:09:26;9.90;53.80
1614;DHT22;800;48.824;9.346;2023-03-15T06:11:51;10.10;51.00
1614;DHT22;800;48.824;9.346;2023-03-15T06:14:17;10.30;50.70
1614;DHT22;800;48.824;9.346;2023-03-15T06:16:43;10.30;49.90
1614;DHT22;800;48.824;9.346;2023-03-15T06:19:09;10.40;50.10
1614;DHT22;800;48.824;9.346;2023-03-15T06:21:34;10.40;50.20
1614;DHT22;800;48.824;9.346;2023-03-15T06:24:00;10.60;49.90
1614;DHT22;800;48.824;9.346;2023-03-15T06:26:25;10.70;49.50
1614;DHT22;800;48.824;9.346;2023-03-15T06:28:51;10.80;49.00
1614;DHT22;800;48.824;9.346;2023-03-15T06:31:17;11.00;49.00
1614;DHT22;800;48.824;9.346;2023-03-15T06:33:42;11.10;48.70
1614;DHT22;800;48.824;9.346;2023-03-15T06:36:08;11.30;48.20
1614;DHT22;800;48.824;9.346;2023-03-15T06:38:34;11.40;47.80
1614;DHT22;800;48.824;9.346;2023-03-15T06:41:00;11.60;47.70
1614;DHT22;800;48.824;9.346;2023-03-15T06:43:26;11.80;47.50
1614;DHT22;800;48.824;9.346;2023-03-15T06:45:52;11.90;47.10
1614;DHT22;800;48.824;9.346;2023-03-15T06:48:20;12.10;46.30
1614;DHT22;800;48.824;9.346;2023-03-15T06:50:45;12.20;46.00
1614;DHT22;800;48.824;9.346;2023-03-15T06:53:11;12.30;45.90
1614;DHT22;800;48.824;9.346;2023-03-15T06:55:37;12.20;44.80
1614;DHT22;800;48.824;9.346;2023-03-15T06:58:03;11.90;45.50
1614;DHT22;800;48.824;9.346;2023-03-15T07:00:28;11.70;45.50
1614;DHT22;800;48.824;9.346;2023-03-15T07:02:54;11.50;44.90
1614;DHT22;800;48.824;9.346;2023-03-15T07:05:19;11.20;44.20
1614;DHT22;800;48.824;9.346;2023-03-15T07:07:45;11.30;45.20
1614;DHT22;800;48.824;9.346;2023-03-15T07:10:11;11.50;45.70
1614;DHT22;800;48.824;9.346;2023-03-15T07:12:36;11.70;45.60
1614;DHT22;800;48.824;9.346;2023-03-15T07:15:02;11.90;45.30
1614;DHT22;800;48.824;9.346;2023-03-15T07:17:28;11.70;44.50
1614;DHT22;800;48.824;9.346;2023-03-15T07:19:54;11.90;45.30
1614;DHT22;800;48.824;9.346;2023-03-15T07:22:19;12.10;45.90
1614;DHT22;800;48.824;9.346;2023-03-15T07:24:47;12.10;45.10
1614;DHT22;800;48.824;9.346;2023-03-15T07:27:13;12.00;44.60
1614;DHT22;800;48.824;9.346;2023-03-15T07:29:38;12.20;44.80
1614;DHT22;800;48.824;9.346;2023-03-15T07:32:04;12.40;44.40
1614;DHT22;800;48.824;9.346;2023-03-15T07:34:30;12.60;44.10
1614;DHT22;800;48.824;9.346;2023-03-15T07:36:55;12.60;42.80
1614;DHT22;800;48.824;9.346;2023-03-15T07:39:21;12.60;43.20
1614;DHT22;800;48.824;9.346;2023-03-15T07:41:48;12.50;42.80
1614;DHT22;800;48.824;9.346;2023-03-15T07:44:13;12.50;42.80
1614;DHT22;800;48.824;9.346;2023-03-15T07:46:39;12.40;43.40
1614;DHT22;800;48.824;9.346;2023-03-15T07:49:05;12.40;43.40
1614;DHT22;800;48.824;9.346;2023-03-15T07:51:31;12.40;43.00
1614;DHT22;800;48.824;9.346;2023-03-15T07:53:56;12.40;43.00
1614;DHT22;800;48.824;9.346;2023-03-15T07:56:22;11.80;42.90
1614;DHT22;800;48.824;9.346;2023-03-15T07:58:47;11.40;43.30
1614;DHT22;800;48.824;9.346;2023-03-15T08:01:13;11.20;44.20
1614;DHT22;800;48.824;9.346;2023-03-15T08:03:38;11.20;44.10
1614;DHT22;800;48.824;9.346;2023-03-15T08:06:04;11.00;44.10
1614;DHT22;800;48.824;9.346;2023-03-15T08:08:30;11.00;44.70
1614;DHT22;800;48.824;9.346;2023-03-15T08:10:55;11.10;44.50
1614;DHT22;800;48.824;9.346;2023-03-15T08:13:21;10.80;44.10
1614;DHT22;800;48.824;9.346;2023-03-15T08:15:47;10.50;44.20
1614;DHT22;800;48.824;9.346;2023-03-15T08:18:13;10.50;44.90
1614;DHT22;800;48.824;9.346;2023-03-15T08:20:38;10.50;45.30
1614;DHT22;800;48.824;9.346;2023-03-15T08:23:04;10.60;45.10
1614;DHT22;800;48.824;9.346;2023-03-15T08:25:30;10.80;45.60
1614;DHT22;800;48.824;9.346;2023-03-15T08:27:56;10.80;45.10
1614;DHT22;800;48.824;9.346;2023-03-15T08:30:22;10.70;45.20
1614;DHT22;800;48.824;9.346;2023-03-15T08:32:49;10.60;45.80
1614;DHT22;800;48.824;9.346;2023-03-15T08:35:17;10.70;46.10
1614;DHT22;800;48.824;9.346;2023-03-15T08:37:44;10.90;45.60
1614;DHT22;800;48.824;9.346;2023-03-15T08:40:13;10.90;45.20
1614;DHT22;800;48.824;9.346;2023-03-15T08:42:40;10.60;44.90
1614;DHT22;800;48.824;9.346;2023-03-15T08:45:07;10.60;45.90
1614;DHT22;800;48.824;9.346;2023-03-15T08:47:33;10.70;45.80
1614;DHT22;800;48.824;9.346;2023-03-15T08:50:03;10.50;44.80
1614;DHT22;800;48.824;9.346;2023-03-15T08:52:30;10.60;45.10
1614;DHT22;800;48.824;9.346;2023-03-15T08:54:56;10.40;44.50
1614;DHT22;800;48.824;9.346;2023-03-15T08:57:22;10.30;44.70
1614;DHT22;800;48.824;9.346;2023-03-15T08:59:52;10.20;44.70
1614;DHT22;800;48.824;9.346;2023-03-15T09:02:18;10.40;45.40
1614;DHT22;800;48.824;9.346;2023-03-15T09:04:43;10.50;45.10
1614;DHT22;800;48.824;9.346;2023-03-15T09:07:09;10.50;44.70
1614;DHT22;800;48.824;9.346;2023-03-15T09:09:37;10.60;45.30
1614;DHT22;800;48.824;9.346;2023-03-15T09:12:02;10.40;45.00
1614;DHT22;800;48.824;9.346;2023-03-15T09:14:28;10.40;45.70
1614;DHT22;800;48.824;9.346;2023-03-15T09:16:54;10.70;45.90
1614;DHT22;800;48.824;9.346;2023-03-15T09:19:19;10.90;45.60
1614;DHT22;800;48.824;9.346;2023-03-15T09:21:45;10.70;44.70
1614;DHT22;800;48.824;9.346;2023-03-15T09:24:11;10.40;43.90
1614;DHT22;800;48.824;9.346;2023-03-15T09:26:37;10.50;43.90
1614;DHT22;800;48.824;9.346;2023-03-15T09:29:03;10.40;44.30
1614;DHT22;800;48.824;9.346;2023-03-15T09:31:28;10.50;44.60
1614;DHT22;800;48.824;9.346;2023-03-15T09:33:56;10.40;43.90
1614;DHT22;800;48.824;9.346;2023-03-15T09:36:21;10.60;44.40
1614;DHT22;800;48.824;9.346;2023-03-15T09:38:47;10.20;43.80
1614;DHT22;800;48.824;9.346;2023-03-15T09:41:29;10.40;44.50
1614;DHT22;800;48.824;9.346;2023-03-15T09:44:15;10.80;44.10
1614;DHT22;800;48.824;9.346;2023-03-15T09:47:19;10.90;43.60
1614;DHT22;800;48.824;9.346;2023-03-15T09:52:39;10.70;40.40
1614;DHT22;800;48.824;9.346;2023-03-15T09:55:21;10.70;40.80
1614;DHT22;800;48.824;9.346;2023-03-15T10:00:24;10.70;42.00
1614;DHT22;800;48.824;9.346;2023-03-15T10:02:59;10.70;41.70
1614;DHT22;800;48.824;9.346;2023-03-15T10:08:12;10.90;41.70
1614;DHT22;800;48.824;9.346;2023-03-15T10:13:41;10.90;41.80
1614;DHT22;800;48.824;9.346;2023-03-15T10:16:17;10.90;41.90
1614;DHT22;800;48.824;9.346;2023-03-15T10:19:12;11.00;42.40
1614;DHT22;800;48.824;9.346;2023-03-15T10:21:52;10.90;41.90
1614;DHT22;800;48.824;9.346;2023-03-15T10:27:13;11.10;41.90
1614;DHT22;800;48.824;9.346;2023-03-15T10:29:39;11.10;41.50
1614;DHT22;800;48.824;9.346;2023-03-15T10:32:08;11.10;41.90
1614;DHT22;800;48.824;9.346;2023-03-15T10:34:38;10.80;39.50
1614;DHT22;800;48.824;9.346;2023-03-15T10:37:04;11.00;40.40
1614;DHT22;800;48.824;9.346;2023-03-15T10:39:30;11.20;40.00
1614;DHT22;800;48.824;9.346;2023-03-15T10:41:56;11.20;39.70
1614;DHT22;800;48.824;9.346;2023-03-15T10:44:25;11.20;39.30
1614;DHT22;800;48.824;9.346;2023-03-15T10:49:35;11.20;40.70
1614;DHT22;800;48.824;9.346;2023-03-15T10:52:01;11.10;41.40
1614;DHT22;800;48.824;9.346;2023-03-15T10:54:26;11.40;41.50
1614;DHT22;800;48.824;9.346;2023-03-15T10:57:14;11.60;41.50
1614;DHT22;800;48.824;9.346;2023-03-15T11:00:01;12.00;41.00
1614;DHT22;800;48.824;9.346;2023-03-15T11:02:31;12.30;40.30
1614;DHT22;800;48.824;9.346;2023-03-15T11:07:35;12.40;40.40
1614;DHT22;800;48.824;9.346;2023-03-15T11:10:03;12.60;40.40
1614;DHT22;800;48.824;9.346;2023-03-15T11:12:30;12.60;40.50
1614;DHT22;800;48.824;9.346;2023-03-15T11:15:33;12.70;40.90
1614;DHT22;800;48.824;9.346;2023-03-15T11:17:51;12.60;39.60
1614;DHT22;800;48.824;9.346;2023-03-15T11:20:36;12.60;39.70
1614;DHT22;800;48.824;9.346;2023-03-15T11:23:21;12.60;39.70
1614;DHT22;800;48.824;9.346;2023-03-15T11:25:48;12.50;39.10
1614;DHT22;800;48.824;9.346;2023-03-15T11:28:19;12.50;39.60
1614;DHT22;800;48.824;9.346;2023-03-15T11:30:46;12.50;39.00
1614;DHT22;800;48.824;9.346;2023-03-15T11:35:59;12.60;39.30
1614;DHT22;800;48.824;9.346;2023-03-15T11:38:38;12.40;39.50
1614;DHT22;800;48.824;9.346;2023-03-15T11:44:00;12.40;40.00
1614;DHT22;800;48.824;9.346;2023-03-15T11:46:34;12.40;40.70
1614;DHT22;800;48.824;9.346;2023-03-15T11:49:09;12.20;41.90
1614;DHT22;800;48.824;9.346;2023-03-15T11:51:36;12.40;42.00
1614;DHT22;800;48.824;9.346;2023-03-15T11:54:10;12.30;41.50
1614;DHT22;800;48.824;9.346;2023-03-15T11:56:44;12.40;41.60
1614;DHT22;800;48.824;9.346;2023-03-15T11:59:13;12.60;41.40
1614;DHT22;800;48.824;9.346;2023-03-15T12:01:49;12.60;41.40
1614;DHT22;800;48.824;9.346;2023-03-15T12:06:56;12.70;40.20
1614;DHT22;800;48.824;9.346;2023-03-15T12:11:58;12.70;39.70
1614;DHT22;800;48.824;9.346;2023-03-15T12:14:30;12.80;40.00
1614;DHT22;800;48.824;9.346;2023-03-15T12:20:49;12.80;38.90
1614;DHT22;800;48.824;9.346;2023-03-15T12:22:53;12.80;39.30
1614;DHT22;800;48.824;9.346;2023-03-15T12:25:35;12.70;39.10
1614;DHT22;800;48.824;9.346;2023-03-15T12:28:08;12.40;39.70
1614;DHT22;800;48.824;9.346;2023-03-15T12:30:39;12.40;40.30
1614;DHT22;800;48.824;9.346;2023-03-15T12:33:14;12.10;40.90
1614;DHT22;800;48.824;9.346;2023-03-15T12:35:41;12.00;41.20
1614;DHT22;800;48.824;9.346;2023-03-15T12:38:22;11.90;41.80
1614;DHT22;800;48.824;9.346;2023-03-15T12:40:53;12.00;42.20
1614;DHT22;800;48.824;9.346;2023-03-15T12:43:44;12.20;42.40
1614;DHT22;800;48.824;9.346;2023-03-15T12:51:53;12.30;46.60
1614;DHT22;800;48.824;9.346;2023-03-15T12:54:22;12.10;47.80
1614;DHT22;800;48.824;9.346;2023-03-15T12:56:53;11.70;48.90
1614;DHT22;800;48.824;9.346;2023-03-15T12:59:47;11.60;50.00
1614;DHT22;800;48.824;9.346;2023-03-15T13:02:33;11.70;50.60
1614;DHT22;800;48.824;9.346;2023-03-15T13:12:41;11.80;51.70
1614;DHT22;800;48.824;9.346;2023-03-15T13:15:20;11.70;51.90
1614;DHT22;800;48.824;9.346;2023-03-15T13:17:50;12.00;51.80
1614;DHT22;800;48.824;9.346;2023-03-15T13:20:37;12.10;51.50
1614;DHT22;800;48.824;9.346;2023-03-15T13:23:29;12.20;50.80
1614;DHT22;800;48.824;9.346;2023-03-15T13:28:39;12.40;49.50
1614;DHT22;800;48.824;9.346;2023-03-15T13:33:38;12.20;50.50
1614;DHT22;800;48.824;9.346;2023-03-15T13:36:18;12.30;50.80
1614;DHT22;800;48.824;9.346;2023-03-15T13:38:53;12.50;50.10
1614;DHT22;800;48.824;9.346;2023-03-15T13:43:45;12.60;49.00
1614;DHT22;800;48.824;9.346;2023-03-15T13:46:11;12.60;49.00
1614;DHT22;800;48.824;9.346;2023-03-15T13:48:40;12.60;47.90
1614;DHT22;800;48.824;9.346;2023-03-15T13:51:26;12.40;47.00
1614;DHT22;800;48.824;9.346;2023-03-15T13:53:55;12.40;47.70
1614;DHT22;800;48.824;9.346;2023-03-15T13:56:31;12.40;47.60
1614;DHT22;800;48.824;9.346;2023-03-15T13:58:58;12.20;47.10
1614;DHT22;800;48.824;9.346;2023-03-15T14:01:25;12.20;47.00
1614;DHT22;800;48.824;9.346;2023-03-15T14:04:04;12.00;47.10
1614;DHT22;800;48.824;9.346;2023-03-15T14:06:31;12.10;47.30
1614;DHT22;800;48.824;9.346;2023-03-15T14:09:08;12.20;47.30
1614;DHT22;800;48.824;9.346;2023-03-15T14:11:38;11.80;47.50
1614;DHT22;800;48.824;9.346;2023-03-15T14:14:25;11.70;49.50
1614;DHT22;800;48.824;9.346;2023-03-15T14:16:52;11.50;51.00
1614;DHT22;800;48.824;9.346;2023-03-15T14:19:23;11.10;52.10
1614;DHT22;800;48.824;9.346;2023-03-15T14:21:55;11.10;52.40
1614;DHT22;800;48.824;9.346;2023-03-15T14:24:36;10.90;52.60
1614;DHT22;800;48.824;9.346;2023-03-15T14:27:08;10.90;53.00
1614;DHT22;800;48.824;9.346;2023-03-15T14:29:48;11.00;53.50
1614;DHT22;800;48.824;9.346;2023-03-15T14:35:03;11.00;52.40
1614;DHT22;800;48.824;9.346;2023-03-15T14:37:38;11.00;52.60
1614;DHT22;800;48.824;9.346;2023-03-15T14:40:30;11.20;53.00
1614;DHT22;800;48.824;9.346;2023-03-15T14:43:01;11.50;51.70
1614;DHT22;800;48.824;9.346;2023-03-15T14:45:28;11.90;51.30
1614;DHT22;800;48.824;9.346;2023-03-15T14:47:59;12.00;50.20
1614;DHT22;800;48.824;9.346;2023-03-15T14:50:28;12.00;49.60
1614;DHT22;800;48.824;9.346;2023-03-15T14:52:56;12.00;49.60
1614;DHT22;800;48.824;9.346;2023-03-15T14:55:24;12.00;49.40
1614;DHT22;800;48.824;9.346;2023-03-15T14:57:52;12.00;50.20
1614;DHT22;800;48.824;9.346;2023-03-15T15:00:19;12.20;50.10
1614;DHT22;800;48.824;9.346;2023-03-15T15:02:47;12.20;49.60
1614;DHT22;800;48.824;9.346;2023-03-15T15:05:27;12.30;49.50
1614;DHT22;800;48.824;9.346;2023-03-15T15:08:13;12.30;49.60
1614;DHT22;800;48.824;9.346;2023-03-15T15:10:41;12.00;51.50
1614;DHT22;800;48.824;9.346;2023-03-15T15:13:13;11.80;52.60
1614;DHT22;800;48.824;9.346;2023-03-15T15:15:39;11.50;53.20
1614;DHT22;800;48.824;9.346;2023-03-15T15:18:05;11.30;53.60
1614;DHT22;800;48.824;9.346;2023-03-15T15:20:30;11.20;54.70
1614;DHT22;800;48.824;9.346;2023-03-15T15:22:56;10.80;55.20
1614;DHT22;800;48.824;9.346;2023-03-15T15:25:22;10.50;56.20
1614;DHT22;800;48.824;9.346;2023-03-15T15:27:49;10.50;56.80
1614;DHT22;800;48.824;9.346;2023-03-15T15:30:17;10.70;56.70
1614;DHT22;800;48.824;9.346;2023-03-15T15:32:44;10.50;56.70
1614;DHT22;800;48.824;9.346;2023-03-15T15:35:12;10.60;57.10
1614;DHT22;800;48.824;9.346;2023-03-15T15:37:39;10.60;57.20
1614;DHT22;800;48.824;9.346;2023-03-15T15:40:09;10.40;57.00
1614;DHT22;800;48.824;9.346;2023-03-15T15:42:36;10.50;57.10
1614;DHT22;800;48.824;9.346;2023-03-15T15:45:02;10.40;57.30
1614;DHT22;800;48.824;9.346;2023-03-15T15:47:27;10.50;57.30
1614;DHT22;800;48.824;9.346;2023-03-15T15:49:53;10.50;57.20
1614;DHT22;800;48.824;9.346;2023-03-15T15:52:18;10.30;57.50
1614;DHT22;800;48.824;9.346;2023-03-15T15:54:45;9.90;58.80
1614;DHT22;800;48.824;9.346;2023-03-15T15:57:11;9.80;60.00
1614;DHT22;800;48.824;9.346;2023-03-15T15:59:37;9.60;60.50
1614;DHT22;800;48.824;9.346;2023-03-15T16:02:05;9.30;60.90
1614;DHT22;800;48.824;9.346;2023-03-15T16:04:36;9.20;62.00
1614;DHT22;800;48.824;9.346;2023-03-15T16:07:02;9.30;61.30
1614;DHT22;800;48.824;9.346;2023-03-15T16:09:29;9.60;61.10
1614;DHT22;800;48.824;9.346;2023-03-15T16:11:56;9.80;60.20
1614;DHT22;800;48.824;9.346;2023-03-15T16:14:22;9.80;59.90
1614;DHT22;800;48.824;9.346;2023-03-15T16:16:47;9.70;60.20
1614;DHT22;800;48.824;9.346;2023-03-15T16:19:13;9.90;60.40
1614;DHT22;800;48.824;9.346;2023-03-15T16:21:46;9.90;60.10
1614;DHT22;800;48.824;9.346;2023-03-15T16:24:29;10.10;59.10
1614;DHT22;800;48.824;9.346;2023-03-15T16:27:01;10.30;58.70
1614;DHT22;800;48.824;9.346;2023-03-15T16:29:44;10.30;58.60
1614;DHT22;800;48.824;9.346;2023-03-15T16:32:20;10.40;58.30
1614;DHT22;800;48.824;9.346;2023-03-15T16:34:47;10.50;58.00
1614;DHT22;800;48.824;9.346;2023-03-15T16:37:19;10.60;57.70
1614;DHT22;800;48.824;9.346;2023-03-15T16:39:47;10.70;57.60
1614;DHT22;800;48.824;9.346;2023-03-15T16:42:15;10.70;57.40
1614;DHT22;800;48.824;9.346;2023-03-15T16:44:41;10.60;57.20
1614;DHT22;800;48.824;9.346;2023-03-15T16:47:08;10.70;57.40
1614;DHT22;800;48.824;9.346;2023-03-15T16:49:33;10.70;57.50
1614;DHT22;800;48.824;9.346;2023-03-15T16:52:00;10.80;57.30
1614;DHT22;800;48.824;9.346;2023-03-15T16:54:27;10.80;56.80
1614;DHT22;800;48.824;9.346;2023-03-15T16:56:54;10.80;56.90
1614;DHT22;800;48.824;9.346;2023-03-15T16:59:20;10.80;57.10
1614;DHT22;800;48.824;9.346;2023-03-15T17:01:46;10.90;57.60
1614;DHT22;800;48.824;9.346;2023-03-15T17:04:14;10.90;56.80
1614;DHT22;800;48.824;9.346;2023-03-15T17:06:40;11.00;56.50
1614;DHT22;800;48.824;9.346;2023-03-15T17:09:11;11.00;56.30
1614;DHT22;800;48.824;9.346;2023-03-15T17:11:39;11.10;56.20
1614;DHT22;800;48.824;9.346;2023-03-15T17:14:12;11.20;56.10
1614;DHT22;800;48.824;9.346;2023-03-15T17:16:39;11.20;56.00
1614;DHT22;800;48.824;9.346;2023-03-15T17:19:08;11.20;55.90
1614;DHT22;800;48.824;9.346;2023-03-15T17:21:34;11.20;55.80
1614;DHT22;800;48.824;9.346;2023-03-15T17:24:00;11.20;55.80
1614;DHT22;800;48.824;9.346;2023-03-15T17:26:29;11.30;55.80
1614;DHT22;800;48.824;9.346;2023-03-15T17:28:55;11.30;55.60
1614;DHT22;800;48.824;9.346;2023-03-15T17:31:22;11.20;55.40
1614;DHT22;800;48.824;9.346;2023-03-15T17:33:48;11.30;55.40
1614;DHT22;800;48.824;9.346;2023-03-15T17:36:19;11.30;55.30